Barrington, Illinois
Current Conditions -  °F | °C
As of 2:52 AM on Friday 24 Oct 2014 (Local Time) from KPWK Reporting Station
Overcast Overcast  
Wind Chill: 54°   Ceiling: 2400
Heat Index: 54°   Visibility: 10mi
Dew Point: 45°   Wind: 5mph
Humidity: 72%   Direction: 180°S
Pressure: 30.06"   Gusts: NA
Location:  42.15°N, 88.14°W
Report Text: KPWK 240752Z AUTO 18004KT 10SM OVC024 12/07 A3006 RMK AO2 SLP177 T01220072
Loading
Personal Weather Stations






























Interactive Weather Map
Tropical Storm Tracking
New forecast layout! Learn more

10-Day Weather Forecast

Advertisements
Track Severe Weather on mobile